createdAt,value
2023-01-22T00:01:07.089Z,97192.03
2023-01-22T00:03:33.780Z,97191.53
2023-01-22T00:06:00.449Z,97190.25
2023-01-22T00:08:27.091Z,97183.78
2023-01-22T00:10:54.447Z,97182.84
2023-01-22T00:13:21.810Z,97192.75
2023-01-22T00:15:48.534Z,97191.84
2023-01-22T00:18:15.620Z,97192.56
2023-01-22T00:20:50.929Z,97190.69
2023-01-22T00:23:17.623Z,97194.94
2023-01-22T00:25:44.472Z,97193.41
2023-01-22T00:28:11.423Z,97196.53
2023-01-22T00:30:38.160Z,97193.50
2023-01-22T00:33:04.900Z,97193.88
2023-01-22T00:35:31.576Z,97199.28
2023-01-22T00:37:58.227Z,97189.44
2023-01-22T00:40:25.236Z,97198.69
2023-01-22T00:42:51.928Z,97200.75
2023-01-22T00:45:18.565Z,97188.94
2023-01-22T00:47:45.705Z,97202.38
2023-01-22T00:50:15.862Z,97205.06
2023-01-22T00:52:42.640Z,97197.91
2023-01-22T00:55:09.386Z,97206.00
2023-01-22T00:57:36.450Z,97211.34
2023-01-22T01:00:03.246Z,97209.88
2023-01-22T01:02:29.918Z,97211.47
2023-01-22T01:04:56.584Z,97209.16
2023-01-22T01:07:23.225Z,97209.47
2023-01-22T01:09:49.868Z,97209.03
2023-01-22T01:12:16.624Z,97218.09
2023-01-22T01:14:45.611Z,97214.88
2023-01-22T01:17:12.328Z,97216.34
2023-01-22T01:19:38.984Z,97219.47
2023-01-22T01:22:05.622Z,97210.81
2023-01-22T01:24:32.293Z,97214.63
2023-01-22T01:26:58.943Z,97214.47
2023-01-22T01:29:25.568Z,97214.19
2023-01-22T01:31:52.758Z,97216.47
2023-01-22T01:34:19.522Z,97211.47
2023-01-22T01:36:49.429Z,97215.03
2023-01-22T01:39:16.645Z,97214.69
2023-01-22T01:41:43.375Z,97212.63
2023-01-22T01:44:16.711Z,97209.00
2023-01-22T01:47:10.941Z,97211.13
2023-01-22T01:49:47.250Z,97209.84
2023-01-22T01:52:13.951Z,97208.69
2023-01-22T01:54:42.092Z,97206.56
2023-01-22T01:57:11.668Z,97217.66
2023-01-22T01:59:38.677Z,97216.16
2023-01-22T02:02:08.283Z,97218.47
2023-01-22T02:04:34.992Z,97216.78
2023-01-22T02:07:02.069Z,97219.63
2023-01-22T02:09:28.721Z,97218.47
2023-01-22T02:11:55.350Z,97223.09
2023-01-22T02:14:24.376Z,97225.66
2023-01-22T02:17:11.757Z,97224.31
2023-01-22T02:19:39.138Z,97224.09
2023-01-22T02:22:13.866Z,97222.47
2023-01-22T02:24:43.280Z,97229.19
2023-01-22T02:27:09.987Z,97220.63
2023-01-22T02:29:36.622Z,97231.16
2023-01-22T02:32:03.269Z,97231.94
2023-01-22T02:34:30.073Z,97234.47
2023-01-22T02:36:56.702Z,97232.28
2023-01-22T02:39:23.338Z,97237.06
2023-01-22T02:41:50.055Z,97229.72
2023-01-22T02:44:19.449Z,97232.00
2023-01-22T02:46:46.128Z,97239.25
2023-01-22T02:49:12.793Z,97234.13
2023-01-22T02:51:39.643Z,97232.84
2023-01-22T02:54:06.273Z,97232.53
2023-01-22T02:56:33.759Z,97235.72
2023-01-22T02:59:01.276Z,97246.50
2023-01-22T03:01:27.932Z,97239.47
2023-01-22T03:03:56.118Z,97236.81
2023-01-22T03:06:24.715Z,97245.38
2023-01-22T03:08:58.892Z,97243.78
2023-01-22T03:11:26.490Z,97232.53
2023-01-22T03:13:53.378Z,97244.25
2023-01-22T03:16:22.982Z,97241.38
2023-01-22T03:18:49.691Z,97240.78
2023-01-22T03:21:16.413Z,97256.41
2023-01-22T03:23:44.742Z,97242.66
2023-01-22T03:26:11.383Z,97241.53
2023-01-22T03:28:38.036Z,97240.47
2023-01-22T03:31:07.932Z,97244.91
2023-01-22T03:33:39.135Z,97244.41
2023-01-22T03:36:07.755Z,97243.00
2023-01-22T03:38:34.432Z,97246.09
2023-01-22T03:41:21.219Z,97245.25
2023-01-22T03:43:47.887Z,97246.59
2023-01-22T03:46:16.648Z,97247.53
2023-01-22T03:48:43.442Z,97247.78
2023-01-22T03:51:14.263Z,97253.09
2023-01-22T03:53:41.632Z,97257.31
2023-01-22T03:56:12.797Z,97254.13
2023-01-22T03:58:39.526Z,97263.41
2023-01-22T04:01:08.396Z,97265.31
2023-01-22T04:03:35.217Z,97257.69
2023-01-22T04:06:01.884Z,97261.09
2023-01-22T04:08:29.412Z,97255.19
2023-01-22T04:10:56.532Z,97263.13
2023-01-22T04:13:26.518Z,97260.59
2023-01-22T04:15:53.158Z,97262.38
2023-01-22T04:18:22.858Z,97256.19
2023-01-22T04:20:52.824Z,97259.75
2023-01-22T04:23:20.040Z,97272.84
2023-01-22T04:25:47.012Z,97267.72
2023-01-22T04:28:13.717Z,97269.22
2023-01-22T04:30:40.819Z,97260.25
2023-01-22T04:33:07.520Z,97269.63
2023-01-22T04:35:38.342Z,97277.09
2023-01-22T04:38:05.759Z,97279.28
2023-01-22T04:40:32.673Z,97274.44
2023-01-22T04:43:03.233Z,97275.41
2023-01-22T04:45:29.904Z,97280.31
2023-01-22T04:47:57.467Z,97272.97
2023-01-22T04:50:28.830Z,97284.72
2023-01-22T04:52:55.643Z,97282.94
2023-01-22T04:55:22.919Z,97282.34
2023-01-22T04:57:49.653Z,97275.47
2023-01-22T05:00:17.249Z,97278.09
2023-01-22T05:02:44.181Z,97284.44
2023-01-22T05:05:10.945Z,97284.34
2023-01-22T05:07:37.611Z,97292.13
2023-01-22T05:10:04.597Z,97292.53
2023-01-22T05:12:31.595Z,97290.44
2023-01-22T05:14:58.237Z,97283.94
2023-01-22T05:17:24.894Z,97292.63
2023-01-22T05:19:51.543Z,97298.63
2023-01-22T05:22:18.197Z,97291.38
2023-01-22T05:24:44.848Z,97291.00
2023-01-22T05:27:11.494Z,97293.97
2023-01-22T05:29:38.563Z,97278.66
2023-01-22T05:32:05.426Z,97280.16
2023-01-22T05:34:32.101Z,97282.84
2023-01-22T05:36:58.729Z,97284.41
2023-01-22T05:39:25.373Z,97292.78
2023-01-22T05:41:52.062Z,97291.84
2023-01-22T05:44:18.697Z,97289.47
2023-01-22T05:46:45.833Z,97291.44
2023-01-22T05:49:12.511Z,97293.06
2023-01-22T05:51:39.161Z,97295.06
2023-01-22T05:54:05.807Z,97285.03
2023-01-22T05:56:32.448Z,97293.75
2023-01-22T05:58:59.128Z,97293.06
2023-01-22T06:01:25.775Z,97296.34
2023-01-22T06:03:55.344Z,97295.50
2023-01-22T06:06:22.067Z,97294.47
2023-01-22T06:08:49.522Z,97303.94
2023-01-22T06:11:16.584Z,97298.88
2023-01-22T06:13:43.301Z,97306.38
2023-01-22T06:16:10.008Z,97309.06
2023-01-22T06:18:36.672Z,97314.59
2023-01-22T06:21:07.497Z,97311.22
2023-01-22T06:23:37.181Z,97317.78
2023-01-22T06:26:04.185Z,97315.63
2023-01-22T06:28:30.861Z,97321.06
2023-01-22T06:31:01.729Z,97318.56
2023-01-22T06:33:28.464Z,97322.63
2023-01-22T06:35:55.180Z,97328.41
2023-01-22T06:38:22.536Z,97329.72
2023-01-22T06:40:56.118Z,97321.38
2023-01-22T06:43:22.855Z,97329.75
2023-01-22T06:45:49.651Z,97324.56
2023-01-22T06:48:16.306Z,97330.75
2023-01-22T06:50:43.299Z,97329.81
2023-01-22T06:53:10.067Z,97322.72
2023-01-22T06:55:36.759Z,97316.19
2023-01-22T06:58:03.434Z,97329.78
2023-01-22T07:00:30.127Z,97330.94
2023-01-22T07:02:56.834Z,97333.28
2023-01-22T07:05:23.983Z,97324.72
2023-01-22T07:07:53.469Z,97328.97
2023-01-22T07:10:20.483Z,97333.44
2023-01-22T07:12:51.060Z,97340.13
2023-01-22T07:15:17.724Z,97346.19
2023-01-22T07:17:49.698Z,97345.03
2023-01-22T07:20:17.044Z,97348.50
2023-01-22T07:22:43.891Z,97347.28
2023-01-22T07:25:10.936Z,97360.22
2023-01-22T07:27:37.608Z,97362.75
2023-01-22T07:30:05.781Z,97354.75
2023-01-22T07:32:32.670Z,97369.28
2023-01-22T07:34:59.331Z,97368.44
2023-01-22T07:37:26.046Z,97364.22
2023-01-22T07:39:52.677Z,97365.19
2023-01-22T07:42:19.320Z,97371.19
2023-01-22T07:44:46.515Z,97372.72
2023-01-22T07:47:13.351Z,97387.22
2023-01-22T07:49:40.022Z,97387.06
2023-01-22T07:52:06.676Z,97385.06
2023-01-22T07:54:33.426Z,97386.84
2023-01-22T07:57:00.098Z,97391.66
2023-01-22T07:59:26.752Z,97389.06
2023-01-22T08:01:54.868Z,97390.44
2023-01-22T08:04:21.569Z,97390.28
2023-01-22T08:06:48.239Z,97398.09
2023-01-22T08:09:14.890Z,97393.47
2023-01-22T08:11:41.565Z,97399.81
2023-01-22T08:14:08.200Z,97396.06
2023-01-22T08:16:34.905Z,97398.13
2023-01-22T08:19:02.238Z,97405.44
2023-01-22T08:21:28.969Z,97399.66
2023-01-22T08:23:56.824Z,97414.88
2023-01-22T08:26:23.473Z,97411.59
2023-01-22T08:28:50.206Z,97415.91
2023-01-22T08:31:27.355Z,97408.88
2023-01-22T08:33:54.300Z,97411.91
2023-01-22T08:36:21.423Z,97413.56
2023-01-22T08:38:48.211Z,97415.03
2023-01-22T08:41:14.959Z,97416.38
2023-01-22T08:43:41.716Z,97414.66
2023-01-22T08:46:08.503Z,97420.06
2023-01-22T08:48:35.285Z,97416.69
2023-01-22T08:51:02.049Z,97410.91
2023-01-22T08:53:28.685Z,97412.59
2023-01-22T08:55:55.355Z,97412.59
2023-01-22T08:58:22.042Z,97412.88
2023-01-22T09:00:51.305Z,97423.75
2023-01-22T09:03:18.070Z,97426.56
2023-01-22T09:05:44.728Z,97422.59
2023-01-22T09:08:12.892Z,97417.56
2023-01-22T09:10:39.672Z,97420.31
2023-01-22T09:13:06.335Z,97424.41
2023-01-22T09:15:33.224Z,97427.38
2023-01-22T09:18:00.244Z,97425.16
2023-01-22T09:20:26.940Z,97429.34
2023-01-22T09:22:53.696Z,97435.34
2023-01-22T09:25:20.458Z,97435.88
2023-01-22T09:27:47.223Z,97429.38
2023-01-22T09:30:13.922Z,97435.69
2023-01-22T09:32:40.934Z,97437.06
2023-01-22T09:35:08.339Z,97439.28
2023-01-22T09:37:34.983Z,97445.47
2023-01-22T09:40:15.887Z,97448.84
2023-01-22T09:42:42.639Z,97461.94
2023-01-22T09:45:11.353Z,97454.81
2023-01-22T09:47:42.571Z,97451.88
2023-01-22T09:50:15.020Z,97458.72
2023-01-22T09:52:41.668Z,97463.03
2023-01-22T09:55:16.254Z,97454.41
2023-01-22T09:57:45.886Z,97457.88
2023-01-22T10:00:27.335Z,97460.16
2023-01-22T10:03:00.842Z,97456.53
2023-01-22T10:05:33.474Z,97461.16
2023-01-22T10:08:21.401Z,97466.72
2023-01-22T10:10:48.234Z,97463.63
2023-01-22T10:13:28.323Z,97472.00
2023-01-22T10:15:55.326Z,97457.69
2023-01-22T10:18:30.474Z,97458.47
2023-01-22T10:20:58.142Z,97457.44
2023-01-22T10:23:25.613Z,97457.75
2023-01-22T10:25:59.284Z,97455.31
2023-01-22T10:28:26.816Z,97456.41
2023-01-22T10:30:53.519Z,97452.97
2023-01-22T10:33:23.373Z,97455.91
2023-01-22T10:35:52.117Z,97460.63
2023-01-22T10:38:26.357Z,97452.50
2023-01-22T10:41:01.444Z,97443.50
2023-01-22T10:43:35.888Z,97446.97
2023-01-22T10:46:24.026Z,97452.03
2023-01-22T10:49:00.517Z,97449.09
2023-01-22T10:51:30.706Z,97440.78
2023-01-22T10:53:57.512Z,97448.00
2023-01-22T10:56:35.494Z,97450.28
2023-01-22T10:59:15.223Z,97450.28
2023-01-22T11:01:41.970Z,97444.66
2023-01-22T11:04:25.101Z,97446.91
2023-01-22T11:06:58.171Z,97448.34
2023-01-22T11:09:39.795Z,97445.59
2023-01-22T11:12:25.476Z,97436.59
2023-01-22T11:15:12.063Z,97437.59
2023-01-22T11:17:40.612Z,97442.66
2023-01-22T11:20:20.318Z,97432.00
2023-01-22T11:22:54.349Z,97422.19
2023-01-22T11:25:21.638Z,97433.81
2023-01-22T11:27:48.167Z,97428.72
2023-01-22T11:30:45.657Z,97421.91
2023-01-22T11:33:27.373Z,97415.28
2023-01-22T11:35:54.873Z,97423.59
2023-01-22T11:38:43.026Z,97416.16
2023-01-22T11:41:27.904Z,97420.53
2023-01-22T11:44:10.931Z,97421.19
2023-01-22T11:47:20.162Z,97418.34
2023-01-22T11:50:07.887Z,97410.44
2023-01-22T11:52:55.457Z,97408.91
2023-01-22T11:55:51.311Z,97414.28
2023-01-22T11:58:33.327Z,97424.06
2023-01-22T12:01:09.914Z,97414.09
2023-01-22T12:03:48.581Z,97410.00
2023-01-22T12:06:31.977Z,97418.44
2023-01-22T12:09:05.056Z,97416.28
2023-01-22T12:11:53.214Z,97408.28
2023-01-22T12:14:28.526Z,97414.47
2023-01-22T12:17:22.827Z,97416.47
2023-01-22T12:19:58.501Z,97413.81
2023-01-22T12:22:35.597Z,97416.84
2023-01-22T12:25:24.960Z,97411.06
2023-01-22T12:28:03.896Z,97407.88
2023-01-22T12:30:44.678Z,97415.28
2023-01-22T12:33:17.361Z,97407.91
2023-01-22T12:35:44.028Z,97410.75
2023-01-22T12:38:12.257Z,97409.38
2023-01-22T12:40:57.541Z,97409.78
2023-01-22T12:43:35.180Z,97409.78
2023-01-22T12:46:19.927Z,97407.25
2023-01-22T12:49:05.976Z,97411.66
2023-01-22T12:51:42.593Z,97407.38
2023-01-22T12:54:21.321Z,97408.44
2023-01-22T12:56:52.400Z,97403.44
2023-01-22T12:59:34.964Z,97409.63
2023-01-22T13:02:03.367Z,97406.41
2023-01-22T13:04:30.881Z,97404.41
2023-01-22T13:07:17.808Z,97414.84
2023-01-22T13:09:44.452Z,97407.63
2023-01-22T13:12:23.277Z,97401.56
2023-01-22T13:14:49.922Z,97400.09
2023-01-22T13:17:21.476Z,97401.22
2023-01-22T13:19:48.208Z,97398.31
2023-01-22T13:22:23.411Z,97397.19
2023-01-22T13:24:54.848Z,97404.34
2023-01-22T13:27:27.357Z,97407.19
2023-01-22T13:30:08.024Z,97406.88
2023-01-22T13:32:34.718Z,97414.78
2023-01-22T13:35:05.695Z,97415.00
2023-01-22T13:37:32.375Z,97413.53
2023-01-22T13:39:59.017Z,97408.72
2023-01-22T13:42:25.656Z,97411.78
2023-01-22T13:44:52.331Z,97414.38
2023-01-22T13:47:32.820Z,97414.22
2023-01-22T13:49:59.498Z,97414.03
2023-01-22T13:52:26.135Z,97410.06
2023-01-22T13:55:04.471Z,97413.84
2023-01-22T13:57:31.126Z,97416.09
2023-01-22T13:59:59.087Z,97421.22
2023-01-22T14:02:35.095Z,97417.41
2023-01-22T14:05:01.887Z,97418.56
2023-01-22T14:07:33.779Z,97414.50
2023-01-22T14:10:24.305Z,97414.19
2023-01-22T14:13:03.665Z,97421.47
2023-01-22T14:15:30.321Z,97428.47
2023-01-22T14:18:10.774Z,97430.50
2023-01-22T14:20:40.823Z,97430.84
2023-01-22T14:23:07.466Z,97430.84
2023-01-22T14:25:41.913Z,97439.25
2023-01-22T14:28:08.600Z,97444.25
2023-01-22T14:30:35.297Z,97433.31
2023-01-22T14:33:01.946Z,97435.72
2023-01-22T14:35:28.619Z,97441.84
2023-01-22T14:37:55.609Z,97445.53
2023-01-22T14:40:23.440Z,97435.13
2023-01-22T14:42:50.165Z,97444.59
2023-01-22T14:45:17.768Z,97449.88
2023-01-22T14:47:44.558Z,97445.53
2023-01-22T14:50:11.643Z,97447.97
2023-01-22T14:52:39.099Z,97455.69
2023-01-22T14:55:06.157Z,97439.88
2023-01-22T14:57:32.793Z,97447.56
2023-01-22T15:00:00.868Z,97448.72
2023-01-22T15:02:27.527Z,97448.91
2023-01-22T15:04:54.371Z,97452.03
2023-01-22T15:07:22.171Z,97451.91
2023-01-22T15:09:48.997Z,97459.94
2023-01-22T15:12:15.666Z,97454.94
2023-01-22T15:14:42.588Z,97452.91
2023-01-22T15:17:09.238Z,97452.94
2023-01-22T15:19:41.133Z,97466.47
2023-01-22T15:22:08.387Z,97455.44
2023-01-22T15:24:35.085Z,97468.25
2023-01-22T15:27:01.737Z,97469.97
2023-01-22T15:29:28.395Z,97463.50
2023-01-22T15:31:55.127Z,97464.94
2023-01-22T15:34:21.797Z,97467.97
2023-01-22T15:36:48.460Z,97471.03
2023-01-22T15:39:15.140Z,97480.28
2023-01-22T15:41:41.778Z,97465.44
2023-01-22T15:44:11.437Z,97470.47
2023-01-22T15:46:39.262Z,97472.84
2023-01-22T15:49:06.277Z,97465.38
2023-01-22T15:51:32.933Z,97476.03
2023-01-22T15:54:00.963Z,97469.69
2023-01-22T15:56:29.159Z,97470.41
2023-01-22T15:58:56.055Z,97476.16
2023-01-22T16:01:22.858Z,97478.34
2023-01-22T16:03:49.531Z,97471.09
2023-01-22T16:06:23.262Z,97479.22
2023-01-22T16:08:50.383Z,97474.16
2023-01-22T16:11:17.094Z,97482.09
2023-01-22T16:13:46.793Z,97489.16
2023-01-22T16:16:20.353Z,97481.06
2023-01-22T16:18:47.530Z,97491.84
2023-01-22T16:21:14.468Z,97497.34
2023-01-22T16:23:42.061Z,97503.91
2023-01-22T16:26:14.341Z,97491.81
2023-01-22T16:28:41.006Z,97502.69
2023-01-22T16:31:12.558Z,97505.34
2023-01-22T16:33:41.201Z,97505.50
2023-01-22T16:36:13.057Z,97505.13
2023-01-22T16:38:39.892Z,97510.75
2023-01-22T16:41:24.993Z,97512.19
2023-01-22T16:43:52.048Z,97515.66
2023-01-22T16:46:19.737Z,97509.03
2023-01-22T16:48:46.753Z,97511.75
2023-01-22T16:51:18.171Z,97517.75
2023-01-22T16:53:45.063Z,97524.53
2023-01-22T16:56:11.753Z,97523.94
2023-01-22T16:58:38.444Z,97532.59
2023-01-22T17:01:08.923Z,97530.25
2023-01-22T17:03:35.594Z,97527.66
2023-01-22T17:06:02.337Z,97527.91
2023-01-22T17:08:29.798Z,97527.69
2023-01-22T17:10:56.444Z,97528.13
2023-01-22T17:13:23.079Z,97529.22
2023-01-22T17:15:49.788Z,97528.16
2023-01-22T17:18:16.740Z,97533.31
2023-01-22T17:20:57.456Z,97537.25
2023-01-22T17:23:28.203Z,97537.88
2023-01-22T17:25:55.021Z,97533.66
2023-01-22T17:28:21.704Z,97544.31
2023-01-22T17:30:48.703Z,97546.94
2023-01-22T17:33:15.426Z,97551.50
2023-01-22T17:35:42.087Z,97536.38
2023-01-22T17:38:08.742Z,97548.84
2023-01-22T17:40:36.842Z,97550.91
2023-01-22T17:43:03.496Z,97557.59
2023-01-22T17:45:30.176Z,97553.09
2023-01-22T17:47:56.847Z,97552.25
2023-01-22T17:50:23.521Z,97560.66
2023-01-22T17:52:50.281Z,97559.91
2023-01-22T17:55:17.454Z,97565.28
2023-01-22T17:57:44.245Z,97569.06
2023-01-22T18:00:11.359Z,97571.28
2023-01-22T18:02:38.073Z,97563.28
2023-01-22T18:05:04.972Z,97568.88
2023-01-22T18:07:31.649Z,97576.81
2023-01-22T18:09:58.310Z,97573.09
2023-01-22T18:12:24.964Z,97570.16
2023-01-22T18:14:51.608Z,97581.63
2023-01-22T18:17:18.346Z,97587.09
2023-01-22T18:19:45.010Z,97579.75
2023-01-22T18:22:11.660Z,97581.97
2023-01-22T18:24:38.301Z,97584.59
2023-01-22T18:27:04.944Z,97593.56
2023-01-22T18:29:31.585Z,97588.91
2023-01-22T18:31:58.380Z,97591.25
2023-01-22T18:34:25.126Z,97595.41
2023-01-22T18:36:51.805Z,97593.81
2023-01-22T18:39:18.681Z,97596.66
2023-01-22T18:41:45.582Z,97599.91
2023-01-22T18:44:12.637Z,97597.59
2023-01-22T18:46:39.401Z,97591.88
2023-01-22T18:49:08.184Z,97601.13
2023-01-22T18:51:34.905Z,97604.28
2023-01-22T18:54:02.304Z,97600.81
2023-01-22T18:56:29.031Z,97600.72
2023-01-22T18:58:56.349Z,97596.00
2023-01-22T19:01:24.780Z,97598.53
2023-01-22T19:03:56.218Z,97606.31
2023-01-22T19:06:26.176Z,97600.69
2023-01-22T19:09:00.933Z,97603.91
2023-01-22T19:11:27.602Z,97599.22
2023-01-22T19:13:55.249Z,97601.09
2023-01-22T19:16:23.389Z,97605.03
2023-01-22T19:18:56.716Z,97611.03
2023-01-22T19:21:23.682Z,97605.03
2023-01-22T19:23:52.314Z,97610.13
2023-01-22T19:26:23.662Z,97614.44
2023-01-22T19:28:52.418Z,97615.84
2023-01-22T19:31:23.153Z,97612.75
2023-01-22T19:33:50.360Z,97622.16
2023-01-22T19:36:17.440Z,97614.06
2023-01-22T19:38:44.169Z,97617.81
2023-01-22T19:41:10.808Z,97620.66
2023-01-22T19:43:37.462Z,97617.53
2023-01-22T19:46:05.565Z,97615.16
2023-01-22T19:48:32.225Z,97616.00
2023-01-22T19:50:59.891Z,97621.16
2023-01-22T19:53:26.588Z,97626.41
2023-01-22T19:55:53.220Z,97624.81
2023-01-22T19:58:19.889Z,97631.28
2023-01-22T20:00:46.976Z,97628.31
2023-01-22T20:03:13.619Z,97626.97
2023-01-22T20:05:40.706Z,97624.44
2023-01-22T20:08:10.557Z,97629.06
2023-01-22T20:10:37.494Z,97636.50
2023-01-22T20:13:04.655Z,97634.34
2023-01-22T20:15:31.418Z,97636.53
2023-01-22T20:17:58.060Z,97643.69
2023-01-22T20:20:24.693Z,97634.22
2023-01-22T20:22:52.569Z,97634.31
2023-01-22T20:25:21.885Z,97632.63
2023-01-22T20:27:48.886Z,97638.19
2023-01-22T20:30:15.650Z,97630.97
2023-01-22T20:32:42.749Z,97633.97
2023-01-22T20:35:09.666Z,97641.72
2023-01-22T20:37:36.341Z,97644.16
2023-01-22T20:40:03.003Z,97646.28
2023-01-22T20:42:29.622Z,97654.19
2023-01-22T20:44:56.290Z,97651.19
2023-01-22T20:47:22.954Z,97649.50
2023-01-22T20:49:49.617Z,97646.47
2023-01-22T20:52:16.793Z,97661.13
2023-01-22T20:55:00.435Z,97655.34
2023-01-22T20:57:29.009Z,97658.66
2023-01-22T20:59:55.685Z,97650.13
2023-01-22T21:02:22.451Z,97652.75
2023-01-22T21:04:52.489Z,97649.19
2023-01-22T21:07:19.665Z,97653.59
2023-01-22T21:09:46.337Z,97656.06
2023-01-22T21:12:13.010Z,97656.41
2023-01-22T21:14:39.835Z,97658.19
2023-01-22T21:17:06.521Z,97648.38
2023-01-22T21:19:33.167Z,97656.31
2023-01-22T21:21:59.814Z,97651.59
2023-01-22T21:24:26.909Z,97651.66
2023-01-22T21:26:53.686Z,97656.50
2023-01-22T21:29:21.384Z,97664.63
2023-01-22T21:31:48.901Z,97653.59
2023-01-22T21:34:16.395Z,97654.81
2023-01-22T21:36:44.675Z,97658.44
2023-01-22T21:39:14.858Z,97658.06
2023-01-22T21:41:42.508Z,97661.16
2023-01-22T21:44:13.489Z,97655.97
2023-01-22T21:46:42.282Z,97656.50
2023-01-22T21:49:10.803Z,97659.78
2023-01-22T21:51:37.472Z,97655.13
2023-01-22T21:54:04.140Z,97649.38
2023-01-22T21:56:30.811Z,97652.09
2023-01-22T21:58:57.447Z,97664.09
2023-01-22T22:01:24.163Z,97658.91
2023-01-22T22:03:50.840Z,97644.41
2023-01-22T22:06:17.567Z,97645.63
2023-01-22T22:08:44.361Z,97648.97
2023-01-22T22:11:12.561Z,97650.69
2023-01-22T22:13:39.415Z,97658.28
2023-01-22T22:16:06.989Z,97652.09
2023-01-22T22:18:33.683Z,97656.25
2023-01-22T22:21:04.239Z,97645.91
2023-01-22T22:23:31.039Z,97646.66
2023-01-22T22:25:57.953Z,97633.88
2023-01-22T22:28:24.888Z,97642.84
2023-01-22T22:30:51.609Z,97640.75
2023-01-22T22:33:18.381Z,97638.03
2023-01-22T22:35:47.977Z,97637.53
2023-01-22T22:38:17.134Z,97638.78
2023-01-22T22:40:43.828Z,97642.28
2023-01-22T22:43:10.477Z,97651.59
2023-01-22T22:45:37.791Z,97649.09
2023-01-22T22:48:05.101Z,97649.34
2023-01-22T22:50:31.892Z,97642.69
2023-01-22T22:52:58.564Z,97647.25
2023-01-22T22:55:25.218Z,97649.22
2023-01-22T22:57:51.874Z,97655.38
2023-01-22T23:00:18.978Z,97652.69
2023-01-22T23:02:45.761Z,97649.13
2023-01-22T23:05:12.393Z,97642.88
2023-01-22T23:07:39.025Z,97645.31
2023-01-22T23:10:06.168Z,97648.28
2023-01-22T23:12:32.825Z,97641.16
2023-01-22T23:14:59.463Z,97637.50
2023-01-22T23:17:26.132Z,97642.06
2023-01-22T23:19:52.778Z,97644.88
2023-01-22T23:22:19.410Z,97642.16
2023-01-22T23:24:46.050Z,97636.72
2023-01-22T23:27:12.740Z,97640.69
2023-01-22T23:29:39.381Z,97642.41
2023-01-22T23:32:06.025Z,97640.81
2023-01-22T23:34:32.685Z,97641.69
2023-01-22T23:36:59.339Z,97643.09
2023-01-22T23:39:26.038Z,97640.06
2023-01-22T23:41:52.696Z,97636.56
2023-01-22T23:44:19.366Z,97629.97
2023-01-22T23:46:46.097Z,97633.81
2023-01-22T23:49:12.788Z,97630.56
2023-01-22T23:51:39.470Z,97632.19
2023-01-22T23:54:06.121Z,97632.56
2023-01-22T23:56:32.768Z,97632.84
2023-01-22T23:58:59.467Z,97630.25
